Time;durP1;ratioP1;P1;durP2;ratioP2;P2;SDS_P1;SDS_P2;PMS_P1;PMS_P2;Temp;Humidity;BMP_temperature;BMP_pressure;BME280_temperature;BME280_humidity;BME280_pressure;Samples;Min_cycle;Max_cycle;Signal;HPM_P1;HPM_P2
2023/09/16 00:00:09;;;;;;;5.72;5.18;;;14.60;99.90;;;;;;5079400;28;20043;-83
2023/09/16 00:02:35;;;;;;;9.32;6.43;;;14.60;99.90;;;;;;5078798;28;20048;-82
2023/09/16 00:05:03;;;;;;;6.90;5.75;;;14.60;99.90;;;;;;5061127;28;20032;-84
2023/09/16 00:07:29;;;;;;;8.43;5.90;;;14.60;99.90;;;;;;5078533;28;20577;-83
2023/09/16 00:09:57;;;;;;;7.25;6.32;;;14.50;99.90;;;;;;5080568;28;20041;-84
2023/09/16 00:12:26;;;;;;;7.60;5.65;;;14.50;99.90;;;;;;5082287;28;20039;-84
2023/09/16 00:14:52;;;;;;;6.05;5.43;;;14.50;99.90;;;;;;5079293;28;20484;-84
2023/09/16 00:17:19;;;;;;;6.43;5.75;;;14.50;99.90;;;;;;5060800;28;20116;-85
2023/09/16 00:19:45;;;;;;;9.18;5.82;;;14.50;99.90;;;;;;5059666;28;20557;-83
2023/09/16 00:22:11;;;;;;;6.10;5.50;;;14.40;99.90;;;;;;5060350;28;20052;-82
2023/09/16 00:24:37;;;;;;;7.03;6.30;;;14.40;99.90;;;;;;5078791;28;20076;-82
2023/09/16 00:27:04;;;;;;;8.50;6.43;;;15.30;99.90;;;;;;5060392;28;20051;-83
2023/09/16 00:29:29;;;;;;;9.00;6.18;;;14.30;99.90;;;;;;5059270;28;20044;-84
2023/09/16 00:31:56;;;;;;;10.15;5.80;;;14.30;99.90;;;;;;5062646;28;20146;-84
2023/09/16 00:34:22;;;;;;;6.47;5.88;;;14.30;99.90;;;;;;5082239;28;20040;-84
2023/09/16 00:36:47;;;;;;;6.60;6.00;;;15.80;99.90;;;;;;5079018;28;20124;-83
2023/09/16 00:39:13;;;;;;;8.32;6.78;;;14.40;99.90;;;;;;5082218;28;20081;-83
2023/09/16 00:41:40;;;;;;;9.55;7.13;;;14.30;99.90;;;;;;5082025;28;20059;-83
2023/09/16 00:44:06;;;;;;;7.20;6.47;;;14.20;99.90;;;;;;5080955;28;20469;-83
2023/09/16 00:46:31;;;;;;;8.70;7.32;;;14.20;99.90;;;;;;5081726;28;20127;-83
2023/09/16 00:48:57;;;;;;;8.00;7.15;;;14.20;99.90;;;;;;5085167;28;20086;-83
2023/09/16 00:51:23;;;;;;;11.07;8.07;;;14.90;99.90;;;;;;5079972;28;20461;-83
2023/09/16 00:53:50;;;;;;;7.38;6.70;;;14.10;99.90;;;;;;5087056;28;20560;-82
2023/09/16 00:56:16;;;;;;;9.15;6.95;;;14.10;99.90;;;;;;5082636;28;20123;-83
2023/09/16 00:58:42;;;;;;;9.52;7.78;;;14.10;99.90;;;;;;5083796;28;20140;-83
2023/09/16 01:01:09;;;;;;;12.35;8.05;;;14.50;99.90;;;;;;5063781;28;20131;-82
2023/09/16 01:03:35;;;;;;;8.85;7.32;;;14.10;99.90;;;;;;5081095;28;20044;-83
2023/09/16 01:06:04;;;;;;;8.63;7.57;;;14.10;99.90;;;;;;5084789;28;20097;-81
2023/09/16 01:08:32;;;;;;;9.40;7.75;;;14.10;99.90;;;;;;5067815;28;20055;-83
2023/09/16 01:10:57;;;;;;;10.98;9.10;;;14.10;99.90;;;;;;5064140;28;20040;-82
2023/09/16 01:13:23;;;;;;;10.85;8.60;;;14.00;99.90;;;;;;5083010;28;20047;-82
2023/09/16 01:15:57;;;;;;;8.68;7.88;;;14.00;99.90;;;;;;5083486;28;20055;-83
2023/09/16 01:18:42;;;;;;;10.40;8.55;;;14.00;99.90;;;;;;5066770;28;20109;-83
2023/09/16 01:21:08;;;;;;;9.38;8.25;;;14.00;99.90;;;;;;5081545;28;20431;-84
2023/09/16 01:23:34;;;;;;;9.25;7.38;;;13.90;99.90;;;;;;5081703;28;20075;-82
2023/09/16 01:26:00;;;;;;;9.05;7.32;;;14.00;99.90;;;;;;5065209;28;20068;-82
2023/09/16 01:28:26;;;;;;;11.38;8.20;;;13.90;99.90;;;;;;5085247;28;20044;-82
2023/09/16 01:30:55;;;;;;;10.65;8.05;;;13.90;99.90;;;;;;5083344;28;20048;-82
2023/09/16 01:33:29;;;;;;;9.45;8.45;;;13.90;99.90;;;;;;5063043;28;20040;-82
2023/09/16 01:36:06;;;;;;;9.25;8.20;;;13.80;99.90;;;;;;5082950;28;20094;-83
2023/09/16 01:38:34;;;;;;;9.25;8.35;;;14.30;99.90;;;;;;5084951;28;20040;-82
2023/09/16 01:41:02;;;;;;;8.70;8.00;;;13.80;99.90;;;;;;5081807;28;20476;-83
2023/09/16 01:43:28;;;;;;;9.90;8.88;;;15.00;99.90;;;;;;5081329;28;20052;-83
2023/09/16 01:45:53;;;;;;;12.18;8.95;;;13.90;99.90;;;;;;5081710;28;20044;-82
2023/09/16 01:48:19;;;;;;;9.70;8.50;;;13.80;99.90;;;;;;5067136;28;20119;-82
2023/09/16 01:50:45;;;;;;;9.93;7.80;;;15.20;99.90;;;;;;5084462;28;20047;-83
2023/09/16 01:53:11;;;;;;;10.13;7.85;;;13.80;99.90;;;;;;5077491;28;20040;-83
2023/09/16 01:55:37;;;;;;;9.40;8.48;;;13.80;99.90;;;;;;5083101;28;20416;-84
2023/09/16 01:58:04;;;;;;;9.60;7.97;;;14.20;99.90;;;;;;5047183;28;20044;-83
2023/09/16 02:00:30;;;;;;;11.07;9.25;;;14.60;99.90;;;;;;5081159;28;20040;-83
2023/09/16 02:02:56;;;;;;;10.07;8.88;;;13.70;99.90;;;;;;5082540;28;20050;-83
2023/09/16 02:05:22;;;;;;;10.00;8.95;;;13.70;99.90;;;;;;5063047;28;20524;-83
2023/09/16 02:07:48;;;;;;;9.68;8.75;;;13.70;99.90;;;;;;5067170;28;20056;-83
2023/09/16 02:10:14;;;;;;;10.73;9.63;;;13.70;99.90;;;;;;5080343;28;20064;-83
2023/09/16 02:12:39;;;;;;;9.45;8.48;;;13.60;99.90;;;;;;5080298;28;20040;-83
2023/09/16 02:15:07;;;;;;;10.20;9.00;;;14.70;99.90;;;;;;5084815;28;20440;-83
2023/09/16 02:17:33;;;;;;;10.40;9.25;;;13.60;99.90;;;;;;5062737;28;20063;-84
2023/09/16 02:19:58;;;;;;;10.55;9.38;;;14.50;99.90;;;;;;5081600;28;20033;-83
2023/09/16 02:22:24;;;;;;;10.57;9.45;;;13.60;99.90;;;;;;5083635;28;20044;-83
2023/09/16 02:24:49;;;;;;;10.48;9.52;;;13.60;99.90;;;;;;5083513;28;20408;-83
2023/09/16 02:27:15;;;;;;;11.60;10.48;;;13.50;99.90;;;;;;5062585;28;20044;-83
2023/09/16 02:29:41;;;;;;;10.40;9.30;;;14.70;99.90;;;;;;5079651;28;20036;-82
2023/09/16 02:32:06;;;;;;;12.02;9.15;;;13.50;99.90;;;;;;5079361;28;20086;-83
2023/09/16 02:34:36;;;;;;;11.05;10.05;;;13.50;99.90;;;;;;5080377;28;20044;-83
2023/09/16 02:37:02;;;;;;;13.45;10.05;;;13.60;99.90;;;;;;5086414;28;20076;-82
2023/09/16 02:39:27;;;;;;;10.73;9.63;;;13.50;99.90;;;;;;5062204;28;20373;-83
2023/09/16 02:41:53;;;;;;;10.30;9.30;;;13.50;99.90;;;;;;5080238;28;20098;-83
2023/09/16 02:44:19;;;;;;;10.65;9.57;;;13.50;99.90;;;;;;5083300;28;20115;-83
2023/09/16 02:46:44;;;;;;;10.98;9.88;;;13.50;99.90;;;;;;5065439;28;20495;-83
2023/09/16 02:49:10;;;;;;;11.93;10.48;;;13.50;99.90;;;;;;5079113;28;20048;-82
2023/09/16 02:51:36;;;;;;;11.40;10.30;;;13.50;99.90;;;;;;5080665;28;20037;-82
2023/09/16 02:54:02;;;;;;;11.57;10.35;;;13.40;99.90;;;;;;5081848;28;20044;-82
2023/09/16 02:56:28;;;;;;;12.57;11.30;;;13.40;99.90;;;;;;5064021;28;20044;-82
2023/09/16 02:58:53;;;;;;;12.32;9.93;;;15.00;99.90;;;;;;5076937;28;20412;-82
2023/09/16 03:01:19;;;;;;;10.80;9.70;;;13.30;99.90;;;;;;5090976;28;20036;-83
2023/09/16 03:03:45;;;;;;;10.10;9.05;;;13.40;99.90;;;;;;5082322;28;20122;-82
2023/09/16 03:06:11;;;;;;;10.57;9.57;;;13.30;99.90;;;;;;5087344;28;20116;-83
2023/09/16 03:08:36;;;;;;;10.95;9.85;;;13.40;99.90;;;;;;5084974;28;20044;-82
2023/09/16 03:11:06;;;;;;;11.30;10.20;;;13.30;99.90;;;;;;5067014;28;20036;-83
2023/09/16 03:13:32;;;;;;;11.48;10.13;;;13.20;99.90;;;;;;5083535;28;20041;-83
2023/09/16 03:16:14;;;;;;;12.18;10.10;;;13.20;99.90;;;;;;5081041;28;20044;-83
2023/09/16 03:18:44;;;;;;;10.75;9.60;;;13.10;99.90;;;;;;5067129;28;20059;-83
2023/09/16 03:21:09;;;;;;;10.43;9.43;;;13.20;99.90;;;;;;5082393;28;20377;-83
2023/09/16 03:23:35;;;;;;;11.50;9.63;;;13.50;99.90;;;;;;5079434;28;20139;-83
2023/09/16 03:26:01;;;;;;;10.18;9.18;;;13.10;99.90;;;;;;5079753;28;20033;-83
2023/09/16 03:28:26;;;;;;;10.15;9.25;;;13.80;99.90;;;;;;5083247;28;20051;-82
2023/09/16 03:30:52;;;;;;;11.25;10.18;;;13.20;99.90;;;;;;5075164;28;20481;-83
2023/09/16 03:33:18;;;;;;;10.35;9.40;;;13.20;99.90;;;;;;5079715;28;20037;-82
2023/09/16 03:35:43;;;;;;;10.90;9.20;;;13.20;99.90;;;;;;5064521;28;20048;-82
2023/09/16 03:38:09;;;;;;;11.30;9.95;;;13.10;99.90;;;;;;5081407;28;20036;-82
2023/09/16 03:40:35;;;;;;;10.07;9.05;;;13.00;99.90;;;;;;5060734;28;20055;-82
2023/09/16 03:43:04;;;;;;;11.00;9.77;;;13.10;99.90;;;;;;5061766;28;20409;-82
2023/09/16 03:45:29;;;;;;;11.27;9.52;;;13.10;99.90;;;;;;5085169;28;20043;-82
2023/09/16 03:47:56;;;;;;;10.95;9.82;;;13.10;99.90;;;;;;5061865;28;20044;-83
2023/09/16 03:50:21;;;;;;;9.82;8.90;;;13.10;99.90;;;;;;5044759;28;20051;-82
2023/09/16 03:52:48;;;;;;;10.63;9.52;;;13.10;99.90;;;;;;5059980;28;20044;-83
2023/09/16 03:55:15;;;;;;;10.88;9.20;;;13.40;99.90;;;;;;5063629;28;20048;-82
2023/09/16 03:57:41;;;;;;;11.05;9.45;;;13.00;99.90;;;;;;5082315;28;20141;-82
2023/09/16 04:00:08;;;;;;;10.85;9.82;;;13.00;99.90;;;;;;5061917;28;20606;-82
2023/09/16 04:02:33;;;;;;;11.25;10.15;;;12.90;99.90;;;;;;5065692;28;20419;-82
2023/09/16 04:04:59;;;;;;;10.10;9.18;;;14.50;99.90;;;;;;5064068;28;20040;-82
2023/09/16 04:07:25;;;;;;;10.85;9.85;;;12.90;99.90;;;;;;5078586;28;20045;-83
2023/09/16 04:09:50;;;;;;;10.82;9.05;;;12.90;99.90;;;;;;5078395;28;20047;-82
2023/09/16 04:12:16;;;;;;;11.52;10.25;;;14.30;99.90;;;;;;5063747;28;20036;-83
2023/09/16 04:14:42;;;;;;;11.10;10.10;;;12.90;99.90;;;;;;5081523;28;20044;-83
2023/09/16 04:17:07;;;;;;;11.25;10.02;;;12.90;99.90;;;;;;5080889;28;20488;-82
2023/09/16 04:19:33;;;;;;;10.80;9.70;;;12.80;99.90;;;;;;5078732;28;20086;-82
2023/09/16 04:21:59;;;;;;;12.00;9.25;;;14.10;99.90;;;;;;5078013;28;20488;-82
2023/09/16 04:24:24;;;;;;;10.73;9.73;;;11.90;99.90;;;;;;5082482;28;20039;-82
2023/09/16 04:26:50;;;;;;;11.10;10.00;;;13.40;99.90;;;;;;5085048;28;20493;-83
2023/09/16 04:29:15;;;;;;;11.02;10.02;;;12.80;99.90;;;;;;5082951;28;20476;-82
2023/09/16 04:31:41;;;;;;;10.55;9.60;;;12.80;99.90;;;;;;5064533;28;20132;-82
2023/09/16 04:34:07;;;;;;;10.20;9.30;;;12.80;99.90;;;;;;5083641;28;20040;-82
2023/09/16 04:36:32;;;;;;;10.48;9.48;;;14.10;99.90;;;;;;5085649;28;20032;-82
2023/09/16 04:38:58;;;;;;;11.52;9.63;;;12.80;99.90;;;;;;5064036;28;20040;-82
2023/09/16 04:41:24;;;;;;;10.63;9.68;;;12.80;99.90;;;;;;5086776;28;20081;-83
2023/09/16 04:43:51;;;;;;;11.45;10.25;;;12.80;99.90;;;;;;5087729;28;20089;-82
2023/09/16 04:46:18;;;;;;;10.55;9.45;;;12.70;99.90;;;;;;5066159;28;20487;-83
2023/09/16 04:48:44;;;;;;;10.30;9.40;;;12.70;99.90;;;;;;5081790;28;20133;-83
2023/09/16 04:51:10;;;;;;;10.80;9.73;;;12.70;99.90;;;;;;5060927;28;20086;-83
2023/09/16 04:53:36;;;;;;;9.52;8.70;;;12.70;99.90;;;;;;5064182;28;20137;-83
2023/09/16 04:56:05;;;;;;;9.13;8.27;;;12.70;99.90;;;;;;5055288;28;20040;-85
2023/09/16 04:58:31;;;;;;;9.43;8.55;;;12.70;99.90;;;;;;5082015;28;20043;-82
2023/09/16 05:00:59;;;;;;;9.55;8.75;;;12.70;99.90;;;;;;5063886;28;20036;-83
2023/09/16 05:03:25;;;;;;;9.18;8.38;;;14.30;99.90;;;;;;5067214;28;20104;-84
2023/09/16 05:05:52;;;;;;;10.73;9.68;;;12.70;99.90;;;;;;5067318;28;20506;-83
2023/09/16 05:08:18;;;;;;;9.90;8.90;;;13.60;99.90;;;;;;5061086;28;20048;-83
2023/09/16 05:10:44;;;;;;;9.65;8.75;;;12.60;99.90;;;;;;5089320;28;20052;-84
2023/09/16 05:13:09;;;;;;;9.20;8.30;;;12.70;99.90;;;;;;5082760;28;20040;-84
2023/09/16 05:15:35;;;;;;;9.02;8.30;;;12.70;99.90;;;;;;5067208;28;20040;-83
2023/09/16 05:18:01;;;;;;;9.25;8.45;;;12.60;99.90;;;;;;5049865;28;20043;-82
2023/09/16 05:20:26;;;;;;;10.15;9.15;;;12.60;99.90;;;;;;5064105;28;20048;-83
2023/09/16 05:22:52;;;;;;;9.45;8.43;;;14.10;99.90;;;;;;5063294;28;20127;-83
2023/09/16 05:25:18;;;;;;;11.23;8.52;;;13.20;99.90;;;;;;5083292;28;20051;-84
2023/09/16 05:27:44;;;;;;;9.95;9.00;;;12.60;99.90;;;;;;5067105;28;20133;-84
2023/09/16 05:30:10;;;;;;;9.85;8.95;;;12.60;99.90;;;;;;5083869;28;20093;-85
2023/09/16 05:32:36;;;;;;;9.43;8.63;;;12.60;99.90;;;;;;5046515;28;20041;-86
2023/09/16 05:35:02;;;;;;;10.98;9.98;;;12.60;99.90;;;;;;5047712;28;20396;-84
2023/09/16 05:37:27;;;;;;;10.88;9.70;;;12.60;99.90;;;;;;5065797;28;20507;-84
2023/09/16 05:39:53;;;;;;;10.05;9.05;;;13.20;99.90;;;;;;5065966;28;20044;-83
2023/09/16 05:42:19;;;;;;;10.23;9.38;;;12.60;99.90;;;;;;5048456;28;20044;-84
2023/09/16 05:44:44;;;;;;;12.02;10.82;;;12.90;99.90;;;;;;5067053;28;20040;-83
2023/09/16 05:47:10;;;;;;;13.45;9.82;;;12.70;99.90;;;;;;5066267;28;20044;-84
2023/09/16 05:49:39;;;;;;;16.20;11.32;;;12.50;99.90;;;;;;5081097;28;20131;-85
2023/09/16 05:52:05;;;;;;;12.35;11.15;;;12.50;99.90;;;;;;5049616;28;20123;-84
2023/09/16 05:54:30;;;;;;;13.63;12.43;;;12.50;99.90;;;;;;5062987;28;20036;-84
2023/09/16 05:56:56;;;;;;;12.57;11.38;;;13.90;99.90;;;;;;5084961;28;20118;-83
2023/09/16 05:59:21;;;;;;;12.52;11.25;;;12.50;99.90;;;;;;5081351;28;20547;-83
2023/09/16 06:01:47;;;;;;;13.80;12.50;;;12.20;99.90;;;;;;5080177;28;20033;-85
2023/09/16 06:04:13;;;;;;;14.60;12.60;;;12.50;99.90;;;;;;5083541;28;20032;-84
2023/09/16 06:06:39;;;;;;;12.27;11.15;;;13.60;99.90;;;;;;5079261;28;20052;-83
2023/09/16 06:09:05;;;;;;;13.02;11.43;;;13.60;99.90;;;;;;5083679;28;20048;-84
2023/09/16 06:11:32;;;;;;;11.57;10.57;;;12.60;99.90;;;;;;5083416;28;20033;-83
2023/09/16 06:13:58;;;;;;;10.98;9.98;;;12.60;99.90;;;;;;5089103;28;20047;-84
2023/09/16 06:16:24;;;;;;;10.63;9.63;;;12.60;99.90;;;;;;5083050;28;20492;-84
2023/09/16 06:18:49;;;;;;;11.52;10.45;;;12.70;99.90;;;;;;5081043;28;20051;-84
2023/09/16 06:21:18;;;;;;;11.38;10.20;;;14.10;99.90;;;;;;5046727;28;20037;-84
2023/09/16 06:23:44;;;;;;;10.55;9.55;;;12.70;99.90;;;;;;5084741;28;20071;-82
2023/09/16 06:26:11;;;;;;;11.02;9.93;;;12.80;99.90;;;;;;5075518;28;20520;-85
2023/09/16 06:28:37;;;;;;;11.20;10.20;;;12.80;99.90;;;;;;5064088;28;20043;-84
2023/09/16 06:31:03;;;;;;;12.20;11.00;;;12.80;99.90;;;;;;5063702;28;20048;-84
2023/09/16 06:33:29;;;;;;;11.70;10.60;;;12.90;99.90;;;;;;5083631;28;20041;-84
2023/09/16 06:35:55;;;;;;;11.25;9.88;;;12.90;99.90;;;;;;5083212;28;20478;-85
2023/09/16 06:38:20;;;;;;;11.45;10.25;;;14.20;99.90;;;;;;5082751;28;20128;-84
2023/09/16 06:40:46;;;;;;;14.23;10.70;;;13.00;99.90;;;;;;5080083;28;20029;-84
2023/09/16 06:43:12;;;;;;;10.75;9.57;;;13.70;99.90;;;;;;5079874;28;20035;-84
2023/09/16 06:45:37;;;;;;;13.02;11.73;;;14.20;99.90;;;;;;5065835;28;20097;-85
2023/09/16 06:48:03;;;;;;;19.20;14.48;;;13.10;99.90;;;;;;5065231;28;20059;-85
2023/09/16 06:50:29;;;;;;;14.95;13.35;;;13.10;99.90;;;;;;5088872;28;20071;-84
2023/09/16 06:52:55;;;;;;;12.30;11.07;;;13.20;99.90;;;;;;5063395;28;20395;-84
2023/09/16 06:55:21;;;;;;;17.98;13.43;;;14.30;99.90;;;;;;5061557;28;20024;-84
2023/09/16 06:57:46;;;;;;;16.60;14.98;;;13.20;99.90;;;;;;5080798;28;20467;-82
2023/09/16 07:00:13;;;;;;;14.75;13.35;;;13.30;99.90;;;;;;5079791;28;20055;-86
2023/09/16 07:02:39;;;;;;;14.15;12.77;;;13.30;99.90;;;;;;5083103;28;20105;-87
2023/09/16 07:05:05;;;;;;;14.60;12.68;;;13.50;99.90;;;;;;5063690;28;20427;-87
2023/09/16 07:07:31;;;;;;;16.02;14.30;;;12.10;99.90;;;;;;5065970;28;20052;-86
2023/09/16 07:09:57;;;;;;;19.42;17.38;;;15.50;99.90;;;;;;5078911;28;20051;-89
2023/09/16 07:12:26;;;;;;;19.50;16.42;;;13.50;99.90;;;;;;5067485;28;20079;-89
2023/09/16 07:14:52;;;;;;;18.33;16.52;;;14.80;99.90;;;;;;5063028;28;20044;-80
2023/09/16 07:17:21;;;;;;;17.55;15.75;;;13.60;99.90;;;;;;5062092;28;20044;-92
2023/09/16 07:19:50;;;;;;;14.85;13.45;;;;;;;;;;5043945;28;20119;-92
2023/09/16 07:22:22;;;;;;;15.30;13.80;;;13.80;99.90;;;;;;5065693;28;20063;-93
2023/09/16 07:25:14;;;;;;;;;;;;;;;;;;;;;
2023/09/16 07:32:09;;;;;;;17.90;14.73;;;13.60;99.90;;;;;;4939227;29;20070;-94
2023/09/16 07:34:38;;;;;;;16.35;14.85;;;15.20;99.90;;;;;;4986670;28;20467;-84
2023/09/16 07:37:04;;;;;;;16.83;15.02;;;15.10;99.90;;;;;;5013305;28;20095;-87
2023/09/16 07:39:30;;;;;;;17.77;15.88;;;14.20;99.90;;;;;;5080562;28;20050;-84
2023/09/16 08:30:54;;;;;;;13.38;11.73;;;15.60;99.90;;;;;;5642243;23;20812;-92
2023/09/16 08:33:20;;;;;;;13.38;12.00;;;16.50;99.90;;;;;;4815001;29;20416;-88
2023/09/16 08:35:45;;;;;;;12.25;11.05;;;15.80;99.90;;;;;;4813258;29;20046;-85
2023/09/16 08:38:11;;;;;;;13.35;11.93;;;15.80;99.90;;;;;;4814334;29;20042;-87
2023/09/16 08:40:37;;;;;;;13.18;11.85;;;15.90;99.90;;;;;;4812741;29;20560;-84
2023/09/16 08:43:25;;;;;;;11.43;10.15;;;16.00;99.90;;;;;;4814170;29;20073;-87
2023/09/16 08:46:00;;;;;;;12.07;10.88;;;16.10;99.90;;;;;;4818374;29;20422;-87
2023/09/16 08:48:26;;;;;;;12.23;10.93;;;16.20;99.90;;;;;;4810440;29;20046;-87
2023/09/16 08:50:54;;;;;;;10.25;9.23;;;16.30;99.90;;;;;;4813855;29;20049;-85
2023/09/16 08:53:21;;;;;;;9.95;8.95;;;16.30;99.90;;;;;;4814311;29;20046;-85
2023/09/16 08:55:48;;;;;;;12.27;9.98;;;16.40;99.90;;;;;;4810410;29;20572;-86
2023/09/16 08:58:15;;;;;;;10.98;8.65;;;16.50;99.90;;;;;;4810676;29;20086;-85
2023/09/16 09:00:41;;;;;;;9.43;8.52;;;16.50;99.90;;;;;;4811634;29;20089;-86
2023/09/16 09:03:06;;;;;;;9.18;8.25;;;16.60;99.90;;;;;;4812241;29;20475;-88
2023/09/16 09:05:34;;;;;;;8.38;7.47;;;16.70;99.90;;;;;;4813627;29;20060;-87
2023/09/16 09:07:59;;;;;;;10.80;8.10;;;16.80;99.90;;;;;;4810095;29;20047;-88
2023/09/16 09:10:25;;;;;;;9.30;8.32;;;16.80;99.90;;;;;;4811112;29;20583;-90
2023/09/16 09:12:51;;;;;;;9.15;8.23;;;16.90;99.90;;;;;;4814914;29;20050;-89
2023/09/16 09:15:17;;;;;;;9.48;7.20;;;16.90;99.90;;;;;;4816878;29;20175;-89
2023/09/16 09:17:52;;;;;;;9.25;6.80;;;17.10;99.90;;;;;;4818140;29;20126;-90
2023/09/16 09:20:23;;;;;;;7.63;6.32;;;17.10;99.90;;;;;;4807582;29;20503;-88
2023/09/16 09:22:50;;;;;;;8.23;6.90;;;16.00;99.90;;;;;;4802062;29;20070;-90
2023/09/16 09:25:23;;;;;;;6.97;6.38;;;15.80;99.90;;;;;;4808149;29;20057;-90
2023/09/16 09:27:50;;;;;;;8.73;6.85;;;17.30;99.90;;;;;;4823417;29;20404;-89
2023/09/16 09:30:16;;;;;;;8.32;6.22;;;17.40;99.90;;;;;;4821970;29;20068;-84
2023/09/16 09:32:45;;;;;;;7.38;5.40;;;17.50;99.90;;;;;;4822503;29;20078;-86
2023/09/16 09:35:11;;;;;;;8.38;5.55;;;18.40;99.90;;;;;;4822655;29;20042;-87
2023/09/16 09:37:38;;;;;;;6.20;5.60;;;17.70;99.90;;;;;;4821244;29;20090;-88
2023/09/16 09:40:09;;;;;;;9.93;5.65;;;17.90;99.90;;;;;;4821864;29;20066;-88
2023/09/16 09:42:46;;;;;;;6.07;5.03;;;17.80;99.90;;;;;;4821635;29;20061;-89
2023/09/16 09:45:14;;;;;;;6.28;5.53;;;17.90;99.90;;;;;;4819271;29;20129;-88
2023/09/16 09:47:41;;;;;;;7.18;5.32;;;17.90;99.90;;;;;;4813615;29;20088;-89
2023/09/16 09:50:11;;;;;;;5.05;4.55;;;18.00;99.90;;;;;;4820567;29;20042;-89
2023/09/16 09:52:38;;;;;;;7.38;5.15;;;18.10;99.90;;;;;;4820670;29;20050;-85
2023/09/16 09:55:04;;;;;;;7.43;4.88;;;18.20;99.90;;;;;;4821315;29;20057;-88
2023/09/16 09:57:30;;;;;;;5.78;4.85;;;18.20;99.90;;;;;;4820381;29;20050;-87
2023/09/16 09:59:57;;;;;;;5.47;4.78;;;18.30;99.90;;;;;;4817993;29;20045;-82
2023/09/16 10:02:27;;;;;;;6.25;4.82;;;18.40;99.90;;;;;;4819520;29;20061;-90
2023/09/16 10:05:02;;;;;;;6.35;3.78;;;18.40;99.90;;;;;;4820742;29;20146;-87
2023/09/16 10:07:29;;;;;;;5.63;4.32;;;19.00;99.90;;;;;;4820577;29;20062;-86
2023/09/16 10:09:55;;;;;;;4.07;3.47;;;18.60;99.90;;;;;;4822991;29;20106;-90
2023/09/16 10:12:22;;;;;;;4.75;4.20;;;18.90;99.90;;;;;;4816300;29;20795;-87
2023/09/16 10:14:48;;;;;;;5.43;4.28;;;18.80;99.90;;;;;;4815773;29;20039;-91
2023/09/16 10:17:15;;;;;;;4.50;4.07;;;18.80;99.90;;;;;;4822439;29;20559;-89
2023/09/16 10:19:42;;;;;;;5.28;4.10;;;18.90;99.90;;;;;;4821519;29;20050;-85
2023/09/16 10:22:08;;;;;;;5.35;3.92;;;18.90;99.90;;;;;;4819709;29;20579;-85
2023/09/16 10:24:35;;;;;;;5.70;3.55;;;19.00;99.90;;;;;;4816233;29;20047;-85
2023/09/16 10:27:19;;;;;;;6.07;4.47;;;19.60;99.90;;;;;;4822104;29;20042;-86
2023/09/16 10:29:47;;;;;;;7.40;4.60;;;19.20;99.90;;;;;;4822555;29;20057;-85
2023/09/16 10:32:14;;;;;;;7.32;3.80;;;19.30;99.90;;;;;;4814878;29;20050;-86
2023/09/16 10:34:44;;;;;;;7.25;4.78;;;19.40;99.90;;;;;;4813615;29;20061;-85
2023/09/16 10:37:11;;;;;;;5.82;4.88;;;19.40;99.90;;;;;;4817656;29;20057;-85
2023/09/16 10:39:39;;;;;;;6.68;3.75;;;19.60;99.90;;;;;;4821698;29;20058;-86
2023/09/16 10:42:08;;;;;;;5.32;3.97;;;19.60;99.90;;;;;;4819608;29;20507;-86
2023/09/16 10:44:34;;;;;;;5.00;3.85;;;19.80;99.90;;;;;;4820603;29;20219;-83
2023/09/16 10:47:04;;;;;;;6.53;3.97;;;19.90;99.90;;;;;;4814770;29;20134;-85
2023/09/16 10:49:30;;;;;;;4.05;3.75;;;20.00;99.90;;;;;;4812102;29;20051;-84
2023/09/16 10:52:01;;;;;;;7.78;3.83;;;20.00;99.90;;;;;;4822035;29;20049;-82
2023/09/16 10:54:41;;;;;;;5.50;3.92;;;20.10;99.90;;;;;;4820088;29;20644;-86
2023/09/16 10:57:17;;;;;;;5.03;3.75;;;20.20;99.90;;;;;;4821535;29;20092;-86
2023/09/16 10:59:47;;;;;;;6.35;4.13;;;20.30;99.90;;;;;;4827056;29;20054;-89
2023/09/16 11:02:33;;;;;;;4.03;3.70;;;20.40;99.90;;;;;;4819583;29;20103;-89
2023/09/16 11:04:59;;;;;;;4.65;4.18;;;20.50;99.90;;;;;;4835308;29;20054;-87
2023/09/16 11:07:25;;;;;;;10.63;4.55;;;20.60;99.90;;;;;;4821718;29;20425;-90
2023/09/16 11:09:53;;;;;;;5.95;3.72;;;20.90;99.90;;;;;;4820010;29;20535;-90
2023/09/16 11:12:21;;;;;;;7.03;4.25;;;20.80;99.90;;;;;;4809459;29;20073;-91
2023/09/16 11:14:49;;;;;;;4.47;3.35;;;20.90;99.90;;;;;;4821279;29;20042;-90
2023/09/16 11:17:15;;;;;;;7.25;4.72;;;21.00;99.90;;;;;;4822418;29;20475;-89
2023/09/16 11:19:42;;;;;;;4.40;4.05;;;21.10;99.90;;;;;;4820568;29;20164;-87
2023/09/16 11:22:11;;;;;;;4.43;3.53;;;21.20;99.90;;;;;;4819317;29;20505;-90
2023/09/16 11:24:37;;;;;;;9.23;4.53;;;21.30;99.90;;;;;;4801307;29;20175;-90
2023/09/16 11:27:06;;;;;;;5.43;4.18;;;21.50;99.90;;;;;;4821727;29;20050;-91
2023/09/16 11:29:32;;;;;;;7.53;3.67;;;21.40;99.90;;;;;;4801078;29;20126;-91
2023/09/16 11:31:59;;;;;;;7.32;4.03;;;21.50;99.90;;;;;;4806442;29;20133;-92
2023/09/16 11:34:27;;;;;;;4.10;3.80;;;21.60;99.90;;;;;;4821713;29;20061;-88
2023/09/16 11:36:57;;;;;;;4.90;4.38;;;21.60;99.90;;;;;;4819953;29;20050;-93
2023/09/16 11:39:33;;;;;;;6.68;4.10;;;21.60;99.90;;;;;;4813705;29;20121;-91
2023/09/16 11:41:59;;;;;;;5.93;4.45;;;21.60;99.90;;;;;;4791470;29;20531;-88
2023/09/16 11:44:25;;;;;;;3.97;3.67;;;21.70;99.90;;;;;;4798087;29;20062;-89
2023/09/16 11:46:51;;;;;;;8.15;4.05;;;21.70;99.90;;;;;;4813401;29;20053;-90
2023/09/16 11:49:17;;;;;;;6.53;4.03;;;21.80;99.90;;;;;;4813576;29;20061;-87
2023/09/16 11:51:42;;;;;;;3.55;3.22;;;21.80;99.90;;;;;;4815364;29;20051;-89
2023/09/16 11:54:08;;;;;;;5.47;3.35;;;21.90;99.90;;;;;;4814350;29;20150;-88
2023/09/16 11:56:34;;;;;;;5.07;3.10;;;21.90;99.90;;;;;;4814949;29;20050;-89
2023/09/16 11:59:02;;;;;;;6.05;3.00;;;22.00;99.90;;;;;;4812527;29;20372;-89
2023/09/16 12:01:40;;;;;;;3.20;2.90;;;22.10;99.90;;;;;;4811334;29;20050;-89
2023/09/16 12:04:09;;;;;;;2.97;1.65;;;22.20;99.90;;;;;;4813866;29;20089;-89
2023/09/16 12:06:36;;;;;;;1.77;1.67;;;22.20;99.90;;;;;;4814569;29;20082;-88
2023/09/16 12:09:04;;;;;;;3.33;2.17;;;22.10;99.90;;;;;;4812277;29;20095;-87
2023/09/16 12:11:31;;;;;;;5.30;2.58;;;22.00;99.90;;;;;;4814807;29;20119;-85
2023/09/16 12:13:58;;;;;;;3.63;2.20;;;22.00;99.90;;;;;;4821735;29;20050;-92
2023/09/16 12:16:24;;;;;;;6.28;2.70;;;21.90;99.90;;;;;;4815745;29;20054;-87
2023/09/16 12:18:50;;;;;;;4.75;3.00;;;21.90;99.90;;;;;;4819344;29;20050;-90
2023/09/16 12:21:16;;;;;;;2.90;2.60;;;21.80;99.90;;;;;;4819630;29;20523;-88
2023/09/16 12:23:43;;;;;;;5.50;2.70;;;21.70;99.90;;;;;;4812198;29;20050;-87
2023/09/16 12:26:11;;;;;;;4.22;2.88;;;21.70;99.90;;;;;;4813588;29;20043;-84
2023/09/16 12:28:38;;;;;;;2.63;2.42;;;21.70;99.90;;;;;;4811543;29;20473;-87
2023/09/16 12:31:08;;;;;;;4.00;2.70;;;21.70;99.90;;;;;;4812792;29;20115;-85
2023/09/16 12:33:43;;;;;;;3.10;2.55;;;21.70;99.90;;;;;;4813697;29;20049;-89
2023/09/16 12:36:14;;;;;;;3.13;2.80;;;21.70;99.90;;;;;;4819724;29;20046;-89
2023/09/16 12:38:39;;;;;;;3.65;2.45;;;21.70;99.90;;;;;;4818079;29;20073;-88
2023/09/16 12:41:05;;;;;;;2.72;2.50;;;21.70;99.90;;;;;;4812826;29;20769;-88
2023/09/16 12:43:32;;;;;;;4.65;2.33;;;21.50;99.90;;;;;;4819382;29;20042;-85
2023/09/16 12:46:03;;;;;;;3.38;2.00;;;21.60;99.90;;;;;;4813254;29;20054;-89
2023/09/16 12:48:30;;;;;;;2.92;2.42;;;21.70;99.90;;;;;;4821176;29;20077;-87
2023/09/16 12:50:56;;;;;;;1.85;1.63;;;21.80;99.90;;;;;;4825077;29;20061;-86
2023/09/16 12:53:24;;;;;;;4.28;2.00;;;21.80;99.90;;;;;;4823345;29;20047;-88
2023/09/16 12:55:50;;;;;;;5.45;2.08;;;22.00;99.90;;;;;;4816653;29;20825;-86
2023/09/16 12:58:20;;;;;;;3.83;2.17;;;22.10;99.90;;;;;;4824269;29;20050;-89
2023/09/16 13:00:48;;;;;;;5.43;2.30;;;22.10;99.90;;;;;;4817301;29;20513;-85
2023/09/16 13:03:14;;;;;;;2.88;1.90;;;22.20;99.90;;;;;;4819721;29;20049;-89
2023/09/16 13:05:42;;;;;;;2.90;2.25;;;22.30;99.90;;;;;;4817451;29;20483;-94
2023/09/16 13:08:09;;;;;;;4.20;2.50;;;22.40;99.90;;;;;;4819157;29;20141;-85
2023/09/16 13:10:35;;;;;;;2.25;2.05;;;22.50;99.90;;;;;;4817551;29;20054;-87
2023/09/16 13:13:01;;;;;;;3.05;2.67;;;22.70;99.90;;;;;;4816676;29;20043;-85
2023/09/16 13:15:28;;;;;;;4.60;2.25;;;22.70;99.90;;;;;;4813031;29;20058;-85
2023/09/16 13:17:59;;;;;;;3.28;2.30;;;22.80;99.90;;;;;;4820614;29;20399;-86
2023/09/16 13:20:36;;;;;;;4.07;2.55;;;23.00;99.90;;;;;;4814412;29;20047;-85
2023/09/16 13:23:02;;;;;;;2.35;2.17;;;23.00;99.90;;;;;;4813552;29;20104;-86
2023/09/16 13:25:37;;;;;;;2.30;2.20;;;23.10;99.90;;;;;;4817108;29;20415;-84
2023/09/16 13:28:17;;;;;;;2.70;2.28;;;23.20;99.90;;;;;;4816303;29;20050;-85
2023/09/16 13:30:49;;;;;;;2.47;1.80;;;23.20;99.90;;;;;;4811863;29;20130;-84
2023/09/16 13:33:16;;;;;;;2.90;1.98;;;23.30;99.90;;;;;;4815692;29;20051;-85